sensor_id;sensor_type;location;lat;lon;timestamp;P1;durP1;ratioP1;P2;durP2;ratioP2
40591;SDS011;26301;42.832;23.918;2022-08-21T00:02:02;6.75;;;1.95;;
40591;SDS011;26301;42.832;23.918;2022-08-21T00:04:29;5.90;;;1.77;;
40591;SDS011;26301;42.832;23.918;2022-08-21T00:06:56;3.95;;;1.80;;
40591;SDS011;26301;42.832;23.918;2022-08-21T00:09:23;8.48;;;2.17;;
40591;SDS011;26301;42.832;23.918;2022-08-21T00:11:49;5.00;;;1.98;;
40591;SDS011;26301;42.832;23.918;2022-08-21T00:14:15;6.88;;;1.73;;
40591;SDS011;26301;42.832;23.918;2022-08-21T00:16:41;5.40;;;2.00;;
40591;SDS011;26301;42.832;23.918;2022-08-21T00:19:07;5.40;;;2.13;;
40591;SDS011;26301;42.832;23.918;2022-08-21T00:21:34;8.50;;;2.28;;
40591;SDS011;26301;42.832;23.918;2022-08-21T00:24:00;8.25;;;2.05;;
40591;SDS011;26301;42.832;23.918;2022-08-21T00:26:26;6.82;;;2.20;;
40591;SDS011;26301;42.832;23.918;2022-08-21T00:28:52;7.15;;;2.35;;
40591;SDS011;26301;42.832;23.918;2022-08-21T00:31:18;8.07;;;2.13;;
40591;SDS011;26301;42.832;23.918;2022-08-21T00:33:44;6.30;;;1.85;;
40591;SDS011;26301;42.832;23.918;2022-08-21T00:36:10;12.45;;;2.38;;
40591;SDS011;26301;42.832;23.918;2022-08-21T00:38:36;7.13;;;2.17;;
40591;SDS011;26301;42.832;23.918;2022-08-21T00:41:03;7.68;;;1.90;;
40591;SDS011;26301;42.832;23.918;2022-08-21T00:43:32;8.68;;;1.95;;
40591;SDS011;26301;42.832;23.918;2022-08-21T00:45:59;5.75;;;2.05;;
40591;SDS011;26301;42.832;23.918;2022-08-21T00:48:26;8.32;;;1.85;;
40591;SDS011;26301;42.832;23.918;2022-08-21T00:50:56;5.50;;;2.00;;
40591;SDS011;26301;42.832;23.918;2022-08-21T00:53:27;7.03;;;2.63;;
40591;SDS011;26301;42.832;23.918;2022-08-21T00:55:54;9.50;;;2.17;;
40591;SDS011;26301;42.832;23.918;2022-08-21T00:58:21;8.43;;;2.67;;
40591;SDS011;26301;42.832;23.918;2022-08-21T01:00:49;7.95;;;2.25;;
40591;SDS011;26301;42.832;23.918;2022-08-21T01:03:17;8.93;;;2.05;;
40591;SDS011;26301;42.832;23.918;2022-08-21T01:05:46;8.90;;;2.10;;
40591;SDS011;26301;42.832;23.918;2022-08-21T01:08:13;10.32;;;2.72;;
40591;SDS011;26301;42.832;23.918;2022-08-21T01:10:42;9.73;;;2.70;;
40591;SDS011;26301;42.832;23.918;2022-08-21T01:13:10;7.93;;;2.42;;
40591;SDS011;26301;42.832;23.918;2022-08-21T01:15:39;8.52;;;2.25;;
40591;SDS011;26301;42.832;23.918;2022-08-21T01:18:08;6.70;;;1.92;;
40591;SDS011;26301;42.832;23.918;2022-08-21T01:20:36;9.63;;;3.13;;
40591;SDS011;26301;42.832;23.918;2022-08-21T01:23:04;7.50;;;2.25;;
40591;SDS011;26301;42.832;23.918;2022-08-21T01:25:32;11.15;;;2.92;;
40591;SDS011;26301;42.832;23.918;2022-08-21T01:27:59;8.18;;;2.33;;
40591;SDS011;26301;42.832;23.918;2022-08-21T01:30:32;12.15;;;2.15;;
40591;SDS011;26301;42.832;23.918;2022-08-21T01:32:59;10.85;;;2.95;;
40591;SDS011;26301;42.832;23.918;2022-08-21T01:35:26;13.52;;;3.28;;
40591;SDS011;26301;42.832;23.918;2022-08-21T01:37:51;9.35;;;2.75;;
40591;SDS011;26301;42.832;23.918;2022-08-21T01:40:17;7.20;;;2.10;;
40591;SDS011;26301;42.832;23.918;2022-08-21T01:42:43;7.80;;;2.30;;
40591;SDS011;26301;42.832;23.918;2022-08-21T01:45:10;8.38;;;2.80;;
40591;SDS011;26301;42.832;23.918;2022-08-21T01:47:36;7.45;;;2.13;;
40591;SDS011;26301;42.832;23.918;2022-08-21T01:50:04;8.85;;;2.70;;
40591;SDS011;26301;42.832;23.918;2022-08-21T01:52:32;9.85;;;2.58;;
40591;SDS011;26301;42.832;23.918;2022-08-21T01:54:58;9.98;;;2.97;;
40591;SDS011;26301;42.832;23.918;2022-08-21T01:57:24;10.50;;;2.78;;
40591;SDS011;26301;42.832;23.918;2022-08-21T01:59:50;9.68;;;2.42;;
40591;SDS011;26301;42.832;23.918;2022-08-21T02:02:16;9.05;;;2.65;;
40591;SDS011;26301;42.832;23.918;2022-08-21T02:04:42;7.47;;;2.67;;
40591;SDS011;26301;42.832;23.918;2022-08-21T02:07:07;11.07;;;2.70;;
40591;SDS011;26301;42.832;23.918;2022-08-21T02:09:34;8.70;;;2.58;;
40591;SDS011;26301;42.832;23.918;2022-08-21T02:11:59;7.53;;;2.20;;
40591;SDS011;26301;42.832;23.918;2022-08-21T02:14:25;6.38;;;2.92;;
40591;SDS011;26301;42.832;23.918;2022-08-21T02:16:51;10.75;;;2.63;;
40591;SDS011;26301;42.832;23.918;2022-08-21T02:19:18;9.60;;;2.90;;
40591;SDS011;26301;42.832;23.918;2022-08-21T02:21:43;8.07;;;2.78;;
40591;SDS011;26301;42.832;23.918;2022-08-21T02:24:10;7.50;;;2.70;;
40591;SDS011;26301;42.832;23.918;2022-08-21T02:26:37;8.15;;;2.63;;
40591;SDS011;26301;42.832;23.918;2022-08-21T02:29:04;9.18;;;3.13;;
40591;SDS011;26301;42.832;23.918;2022-08-21T02:31:30;9.27;;;3.70;;
40591;SDS011;26301;42.832;23.918;2022-08-21T02:33:56;5.20;;;2.80;;
40591;SDS011;26301;42.832;23.918;2022-08-21T02:36:23;6.97;;;2.67;;
40591;SDS011;26301;42.832;23.918;2022-08-21T02:38:48;9.90;;;3.63;;
40591;SDS011;26301;42.832;23.918;2022-08-21T02:41:16;9.75;;;3.20;;
40591;SDS011;26301;42.832;23.918;2022-08-21T02:43:43;8.70;;;2.92;;
40591;SDS011;26301;42.832;23.918;2022-08-21T02:46:10;5.95;;;3.08;;
40591;SDS011;26301;42.832;23.918;2022-08-21T02:48:38;13.07;;;3.30;;
40591;SDS011;26301;42.832;23.918;2022-08-21T02:51:09;9.50;;;3.70;;
40591;SDS011;26301;42.832;23.918;2022-08-21T02:53:37;7.20;;;3.00;;
40591;SDS011;26301;42.832;23.918;2022-08-21T02:56:05;7.72;;;2.97;;
40591;SDS011;26301;42.832;23.918;2022-08-21T02:58:36;8.45;;;3.35;;
40591;SDS011;26301;42.832;23.918;2022-08-21T03:01:05;9.10;;;3.65;;
40591;SDS011;26301;42.832;23.918;2022-08-21T03:03:34;9.13;;;3.47;;
40591;SDS011;26301;42.832;23.918;2022-08-21T03:06:02;10.50;;;3.78;;
40591;SDS011;26301;42.832;23.918;2022-08-21T03:08:29;7.93;;;2.90;;
40591;SDS011;26301;42.832;23.918;2022-08-21T03:10:55;10.73;;;3.28;;
40591;SDS011;26301;42.832;23.918;2022-08-21T03:13:21;8.75;;;3.10;;
40591;SDS011;26301;42.832;23.918;2022-08-21T03:15:48;11.70;;;3.35;;
40591;SDS011;26301;42.832;23.918;2022-08-21T03:18:15;9.18;;;3.22;;
40591;SDS011;26301;42.832;23.918;2022-08-21T03:20:41;8.40;;;3.00;;
40591;SDS011;26301;42.832;23.918;2022-08-21T03:23:07;8.00;;;3.53;;
40591;SDS011;26301;42.832;23.918;2022-08-21T03:25:34;7.85;;;3.22;;
40591;SDS011;26301;42.832;23.918;2022-08-21T03:28:01;7.95;;;3.92;;
40591;SDS011;26301;42.832;23.918;2022-08-21T03:30:28;11.60;;;3.22;;
40591;SDS011;26301;42.832;23.918;2022-08-21T03:32:56;14.45;;;3.55;;
40591;SDS011;26301;42.832;23.918;2022-08-21T03:35:24;12.05;;;3.88;;
40591;SDS011;26301;42.832;23.918;2022-08-21T03:37:50;7.03;;;3.22;;
40591;SDS011;26301;42.832;23.918;2022-08-21T03:40:17;6.95;;;3.17;;
40591;SDS011;26301;42.832;23.918;2022-08-21T03:42:43;10.95;;;3.25;;
40591;SDS011;26301;42.832;23.918;2022-08-21T03:45:12;7.90;;;2.97;;
40591;SDS011;26301;42.832;23.918;2022-08-21T03:47:49;9.25;;;3.53;;
40591;SDS011;26301;42.832;23.918;2022-08-21T03:50:18;9.07;;;3.65;;
40591;SDS011;26301;42.832;23.918;2022-08-21T03:52:43;8.02;;;3.50;;
40591;SDS011;26301;42.832;23.918;2022-08-21T03:55:10;7.43;;;3.42;;
40591;SDS011;26301;42.832;23.918;2022-08-21T03:57:36;8.43;;;3.38;;
40591;SDS011;26301;42.832;23.918;2022-08-21T04:00:02;7.90;;;3.17;;
40591;SDS011;26301;42.832;23.918;2022-08-21T04:02:30;9.68;;;2.90;;
40591;SDS011;26301;42.832;23.918;2022-08-21T04:04:57;6.88;;;3.15;;
40591;SDS011;26301;42.832;23.918;2022-08-21T04:07:23;6.63;;;3.00;;
40591;SDS011;26301;42.832;23.918;2022-08-21T04:09:48;9.70;;;3.45;;
40591;SDS011;26301;42.832;23.918;2022-08-21T04:12:14;9.45;;;3.05;;
40591;SDS011;26301;42.832;23.918;2022-08-21T04:14:40;6.15;;;3.28;;
40591;SDS011;26301;42.832;23.918;2022-08-21T04:17:06;9.57;;;3.50;;
40591;SDS011;26301;42.832;23.918;2022-08-21T04:19:32;6.60;;;3.00;;
40591;SDS011;26301;42.832;23.918;2022-08-21T04:21:58;6.95;;;2.95;;
40591;SDS011;26301;42.832;23.918;2022-08-21T04:24:24;6.93;;;4.05;;
40591;SDS011;26301;42.832;23.918;2022-08-21T04:26:49;8.43;;;3.80;;
40591;SDS011;26301;42.832;23.918;2022-08-21T04:29:15;8.20;;;3.10;;
40591;SDS011;26301;42.832;23.918;2022-08-21T04:31:41;9.98;;;3.63;;
40591;SDS011;26301;42.832;23.918;2022-08-21T04:34:08;7.07;;;3.20;;
40591;SDS011;26301;42.832;23.918;2022-08-21T04:36:34;10.23;;;3.65;;
40591;SDS011;26301;42.832;23.918;2022-08-21T04:39:00;15.23;;;4.15;;
40591;SDS011;26301;42.832;23.918;2022-08-21T04:41:27;10.30;;;3.70;;
40591;SDS011;26301;42.832;23.918;2022-08-21T04:43:53;8.70;;;3.38;;
40591;SDS011;26301;42.832;23.918;2022-08-21T04:46:22;5.25;;;3.15;;
40591;SDS011;26301;42.832;23.918;2022-08-21T04:48:48;7.80;;;3.78;;
40591;SDS011;26301;42.832;23.918;2022-08-21T04:51:19;9.65;;;3.88;;
40591;SDS011;26301;42.832;23.918;2022-08-21T04:53:59;9.48;;;3.50;;
40591;SDS011;26301;42.832;23.918;2022-08-21T04:56:37;7.10;;;3.10;;
40591;SDS011;26301;42.832;23.918;2022-08-21T04:59:10;8.82;;;3.45;;
40591;SDS011;26301;42.832;23.918;2022-08-21T05:01:41;9.20;;;3.38;;
40591;SDS011;26301;42.832;23.918;2022-08-21T05:04:10;10.38;;;4.35;;
40591;SDS011;26301;42.832;23.918;2022-08-21T05:06:39;12.05;;;4.63;;
40591;SDS011;26301;42.832;23.918;2022-08-21T05:09:09;7.18;;;3.72;;
40591;SDS011;26301;42.832;23.918;2022-08-21T05:11:39;11.15;;;3.72;;
40591;SDS011;26301;42.832;23.918;2022-08-21T05:14:08;6.25;;;3.25;;
40591;SDS011;26301;42.832;23.918;2022-08-21T05:16:34;11.40;;;4.38;;
40591;SDS011;26301;42.832;23.918;2022-08-21T05:19:00;7.25;;;4.20;;
40591;SDS011;26301;42.832;23.918;2022-08-21T05:21:26;10.82;;;4.28;;
40591;SDS011;26301;42.832;23.918;2022-08-21T05:23:52;6.75;;;4.03;;
40591;SDS011;26301;42.832;23.918;2022-08-21T05:26:17;10.85;;;4.30;;
40591;SDS011;26301;42.832;23.918;2022-08-21T05:28:43;8.82;;;4.30;;
40591;SDS011;26301;42.832;23.918;2022-08-21T05:31:10;9.15;;;4.65;;
40591;SDS011;26301;42.832;23.918;2022-08-21T05:33:35;12.07;;;4.68;;
40591;SDS011;26301;42.832;23.918;2022-08-21T05:36:01;14.40;;;4.97;;
40591;SDS011;26301;42.832;23.918;2022-08-21T05:38:27;10.20;;;4.50;;
40591;SDS011;26301;42.832;23.918;2022-08-21T05:40:53;8.85;;;4.22;;
40591;SDS011;26301;42.832;23.918;2022-08-21T05:43:19;6.60;;;3.50;;
40591;SDS011;26301;42.832;23.918;2022-08-21T05:45:45;10.45;;;5.25;;
40591;SDS011;26301;42.832;23.918;2022-08-21T05:48:13;8.02;;;3.42;;
40591;SDS011;26301;42.832;23.918;2022-08-21T05:50:42;18.27;;;3.72;;
40591;SDS011;26301;42.832;23.918;2022-08-21T05:53:09;11.82;;;3.58;;
40591;SDS011;26301;42.832;23.918;2022-08-21T05:55:36;17.23;;;4.25;;
40591;SDS011;26301;42.832;23.918;2022-08-21T05:58:03;7.93;;;3.47;;
40591;SDS011;26301;42.832;23.918;2022-08-21T06:00:30;6.80;;;3.75;;
40591;SDS011;26301;42.832;23.918;2022-08-21T06:02:57;10.00;;;3.75;;
40591;SDS011;26301;42.832;23.918;2022-08-21T06:05:23;10.93;;;3.88;;
40591;SDS011;26301;42.832;23.918;2022-08-21T06:07:49;10.35;;;3.72;;
40591;SDS011;26301;42.832;23.918;2022-08-21T06:10:18;8.40;;;3.20;;
40591;SDS011;26301;42.832;23.918;2022-08-21T06:12:44;13.07;;;3.20;;
40591;SDS011;26301;42.832;23.918;2022-08-21T06:15:10;10.55;;;2.78;;
40591;SDS011;26301;42.832;23.918;2022-08-21T06:17:37;10.13;;;3.47;;
40591;SDS011;26301;42.832;23.918;2022-08-21T06:20:04;7.47;;;2.90;;
40591;SDS011;26301;42.832;23.918;2022-08-21T06:22:30;11.32;;;3.05;;
40591;SDS011;26301;42.832;23.918;2022-08-21T06:24:57;9.95;;;3.15;;
40591;SDS011;26301;42.832;23.918;2022-08-21T06:27:23;15.25;;;3.17;;
40591;SDS011;26301;42.832;23.918;2022-08-21T06:29:51;12.98;;;2.88;;
40591;SDS011;26301;42.832;23.918;2022-08-21T06:32:17;7.43;;;3.30;;
40591;SDS011;26301;42.832;23.918;2022-08-21T06:34:43;7.75;;;3.90;;
40591;SDS011;26301;42.832;23.918;2022-08-21T06:37:11;8.00;;;3.22;;
40591;SDS011;26301;42.832;23.918;2022-08-21T06:39:37;11.40;;;3.75;;
40591;SDS011;26301;42.832;23.918;2022-08-21T06:42:04;9.63;;;2.97;;
40591;SDS011;26301;42.832;23.918;2022-08-21T06:44:31;8.32;;;3.15;;
40591;SDS011;26301;42.832;23.918;2022-08-21T06:46:57;9.27;;;3.47;;
40591;SDS011;26301;42.832;23.918;2022-08-21T06:49:23;8.73;;;4.07;;
40591;SDS011;26301;42.832;23.918;2022-08-21T06:51:49;9.73;;;5.32;;
40591;SDS011;26301;42.832;23.918;2022-08-21T06:54:16;10.20;;;3.85;;
40591;SDS011;26301;42.832;23.918;2022-08-21T06:56:42;14.07;;;4.18;;
40591;SDS011;26301;42.832;23.918;2022-08-21T06:59:07;9.38;;;3.58;;
40591;SDS011;26301;42.832;23.918;2022-08-21T07:01:33;7.18;;;3.05;;
40591;SDS011;26301;42.832;23.918;2022-08-21T07:04:00;7.85;;;3.30;;
40591;SDS011;26301;42.832;23.918;2022-08-21T07:06:27;8.20;;;3.50;;
40591;SDS011;26301;42.832;23.918;2022-08-21T07:08:53;11.50;;;3.05;;
40591;SDS011;26301;42.832;23.918;2022-08-21T07:11:19;9.48;;;2.70;;
40591;SDS011;26301;42.832;23.918;2022-08-21T07:13:48;8.18;;;3.45;;
40591;SDS011;26301;42.832;23.918;2022-08-21T07:16:14;9.20;;;3.25;;
40591;SDS011;26301;42.832;23.918;2022-08-21T07:18:43;8.82;;;3.53;;
40591;SDS011;26301;42.832;23.918;2022-08-21T07:21:09;7.20;;;3.45;;
40591;SDS011;26301;42.832;23.918;2022-08-21T07:23:40;8.45;;;3.25;;
40591;SDS011;26301;42.832;23.918;2022-08-21T07:26:10;9.48;;;3.40;;
40591;SDS011;26301;42.832;23.918;2022-08-21T07:28:37;8.30;;;3.90;;
40591;SDS011;26301;42.832;23.918;2022-08-21T07:31:05;6.75;;;3.25;;
40591;SDS011;26301;42.832;23.918;2022-08-21T07:33:33;8.70;;;3.13;;
40591;SDS011;26301;42.832;23.918;2022-08-21T07:36:00;8.45;;;3.50;;
40591;SDS011;26301;42.832;23.918;2022-08-21T07:38:26;8.10;;;3.40;;
40591;SDS011;26301;42.832;23.918;2022-08-21T07:40:52;7.60;;;3.15;;
40591;SDS011;26301;42.832;23.918;2022-08-21T07:43:21;8.80;;;3.83;;
40591;SDS011;26301;42.832;23.918;2022-08-21T07:45:48;11.80;;;4.13;;
40591;SDS011;26301;42.832;23.918;2022-08-21T07:48:16;8.05;;;3.17;;
40591;SDS011;26301;42.832;23.918;2022-08-21T07:50:42;9.30;;;4.18;;
40591;SDS011;26301;42.832;23.918;2022-08-21T07:53:09;6.43;;;3.00;;
40591;SDS011;26301;42.832;23.918;2022-08-21T07:55:35;9.82;;;3.15;;
40591;SDS011;26301;42.832;23.918;2022-08-21T07:58:01;7.72;;;3.05;;
40591;SDS011;26301;42.832;23.918;2022-08-21T08:00:30;8.02;;;2.80;;
40591;SDS011;26301;42.832;23.918;2022-08-21T08:02:56;7.32;;;3.00;;
40591;SDS011;26301;42.832;23.918;2022-08-21T08:05:26;7.63;;;3.30;;
40591;SDS011;26301;42.832;23.918;2022-08-21T08:07:54;15.15;;;3.05;;
40591;SDS011;26301;42.832;23.918;2022-08-21T08:10:23;12.40;;;3.08;;
40591;SDS011;26301;42.832;23.918;2022-08-21T08:12:49;6.22;;;2.83;;
40591;SDS011;26301;42.832;23.918;2022-08-21T08:15:17;5.22;;;2.60;;
40591;SDS011;26301;42.832;23.918;2022-08-21T08:17:48;6.00;;;2.78;;
40591;SDS011;26301;42.832;23.918;2022-08-21T08:20:15;8.57;;;2.65;;
40591;SDS011;26301;42.832;23.918;2022-08-21T08:22:42;8.63;;;3.28;;
40591;SDS011;26301;42.832;23.918;2022-08-21T08:25:09;7.75;;;2.67;;
40591;SDS011;26301;42.832;23.918;2022-08-21T08:27:37;8.60;;;2.88;;
40591;SDS011;26301;42.832;23.918;2022-08-21T08:30:04;7.88;;;3.13;;
40591;SDS011;26301;42.832;23.918;2022-08-21T08:32:31;10.02;;;3.50;;
40591;SDS011;26301;42.832;23.918;2022-08-21T08:34:57;10.25;;;2.85;;
40591;SDS011;26301;42.832;23.918;2022-08-21T08:37:24;10.82;;;2.88;;
40591;SDS011;26301;42.832;23.918;2022-08-21T08:39:50;7.05;;;2.67;;
40591;SDS011;26301;42.832;23.918;2022-08-21T08:44:59;8.10;;;2.60;;
40591;SDS011;26301;42.832;23.918;2022-08-21T08:47:30;8.55;;;3.80;;
40591;SDS011;26301;42.832;23.918;2022-08-21T08:52:51;5.07;;;2.25;;
40591;SDS011;26301;42.832;23.918;2022-08-21T08:55:27;7.25;;;2.63;;
40591;SDS011;26301;42.832;23.918;2022-08-21T08:58:05;9.57;;;3.30;;
40591;SDS011;26301;42.832;23.918;2022-08-21T09:00:34;9.52;;;3.08;;
40591;SDS011;26301;42.832;23.918;2022-08-21T09:03:01;7.47;;;2.55;;
40591;SDS011;26301;42.832;23.918;2022-08-21T09:05:29;8.52;;;3.35;;
40591;SDS011;26301;42.832;23.918;2022-08-21T09:19:32;13.48;;;4.00;;
40591;SDS011;26301;42.832;23.918;2022-08-21T09:24:55;12.73;;;5.60;;
40591;SDS011;26301;42.832;23.918;2022-08-21T09:27:35;7.30;;;3.45;;
40591;SDS011;26301;42.832;23.918;2022-08-21T09:30:04;7.03;;;3.28;;
40591;SDS011;26301;42.832;23.918;2022-08-21T09:32:36;9.07;;;3.10;;
40591;SDS011;26301;42.832;23.918;2022-08-21T09:35:14;9.43;;;3.40;;
40591;SDS011;26301;42.832;23.918;2022-08-21T09:42:55;7.75;;;3.30;;
40591;SDS011;26301;42.832;23.918;2022-08-21T09:45:26;7.93;;;3.35;;
40591;SDS011;26301;42.832;23.918;2022-08-21T09:47:52;11.35;;;3.70;;
40591;SDS011;26301;42.832;23.918;2022-08-21T09:50:27;6.82;;;3.20;;
40591;SDS011;26301;42.832;23.918;2022-08-21T09:52:55;8.57;;;3.33;;
40591;SDS011;26301;42.832;23.918;2022-08-21T09:58:34;9.90;;;3.03;;
40591;SDS011;26301;42.832;23.918;2022-08-21T10:01:03;7.30;;;2.92;;
40591;SDS011;26301;42.832;23.918;2022-08-21T10:03:31;8.10;;;3.50;;
40591;SDS011;26301;42.832;23.918;2022-08-21T10:08:37;7.70;;;3.17;;
40591;SDS011;26301;42.832;23.918;2022-08-21T10:11:06;10.07;;;3.72;;
40591;SDS011;26301;42.832;23.918;2022-08-21T10:16:28;7.55;;;3.45;;
40591;SDS011;26301;42.832;23.918;2022-08-21T10:27:30;5.75;;;3.10;;
40591;SDS011;26301;42.832;23.918;2022-08-21T10:32:53;9.52;;;2.97;;
40591;SDS011;26301;42.832;23.918;2022-08-21T10:35:31;9.50;;;4.95;;
40591;SDS011;26301;42.832;23.918;2022-08-21T10:54:57;10.50;;;3.55;;
40591;SDS011;26301;42.832;23.918;2022-08-21T10:57:46;9.13;;;3.80;;
40591;SDS011;26301;42.832;23.918;2022-08-21T11:00:23;8.98;;;3.42;;
40591;SDS011;26301;42.832;23.918;2022-08-21T11:03:01;7.10;;;3.97;;
40591;SDS011;26301;42.832;23.918;2022-08-21T11:13:19;8.38;;;3.70;;
40591;SDS011;26301;42.832;23.918;2022-08-21T11:23:59;8.98;;;3.95;;
40591;SDS011;26301;42.832;23.918;2022-08-21T11:26:39;7.35;;;3.63;;
40591;SDS011;26301;42.832;23.918;2022-08-21T11:31:49;8.38;;;3.80;;
40591;SDS011;26301;42.832;23.918;2022-08-21T11:37:21;11.43;;;4.25;;
40591;SDS011;26301;42.832;23.918;2022-08-21T11:43:12;7.22;;;3.75;;
40591;SDS011;26301;42.832;23.918;2022-08-21T11:51:29;7.82;;;4.35;;
40591;SDS011;26301;42.832;23.918;2022-08-21T12:00:28;12.18;;;4.20;;
40591;SDS011;26301;42.832;23.918;2022-08-21T12:03:14;7.68;;;3.95;;
40591;SDS011;26301;42.832;23.918;2022-08-21T12:05:55;11.75;;;4.20;;
40591;SDS011;26301;42.832;23.918;2022-08-21T12:08:29;6.00;;;3.95;;
40591;SDS011;26301;42.832;23.918;2022-08-21T12:11:00;11.20;;;4.22;;
40591;SDS011;26301;42.832;23.918;2022-08-21T12:13:38;11.50;;;4.05;;
40591;SDS011;26301;42.832;23.918;2022-08-21T12:18:36;11.38;;;4.18;;
40591;SDS011;26301;42.832;23.918;2022-08-21T12:26:49;10.02;;;3.95;;
40591;SDS011;26301;42.832;23.918;2022-08-21T12:34:36;8.10;;;4.85;;
40591;SDS011;26301;42.832;23.918;2022-08-21T12:37:24;8.98;;;4.82;;
40591;SDS011;26301;42.832;23.918;2022-08-21T12:42:44;9.68;;;4.55;;
40591;SDS011;26301;42.832;23.918;2022-08-21T12:48:14;7.25;;;4.47;;
40591;SDS011;26301;42.832;23.918;2022-08-21T12:50:56;10.10;;;4.55;;
40591;SDS011;26301;42.832;23.918;2022-08-21T12:53:31;8.00;;;4.18;;
40591;SDS011;26301;42.832;23.918;2022-08-21T12:56:01;7.95;;;4.38;;
40591;SDS011;26301;42.832;23.918;2022-08-21T12:58:29;8.90;;;5.03;;
40591;SDS011;26301;42.832;23.918;2022-08-21T13:00:59;11.30;;;5.30;;
40591;SDS011;26301;42.832;23.918;2022-08-21T13:03:30;8.60;;;5.45;;
40591;SDS011;26301;42.832;23.918;2022-08-21T13:06:00;7.55;;;5.10;;
40591;SDS011;26301;42.832;23.918;2022-08-21T13:08:29;8.68;;;5.28;;
40591;SDS011;26301;42.832;23.918;2022-08-21T13:11:03;11.05;;;5.97;;
40591;SDS011;26301;42.832;23.918;2022-08-21T13:13:32;10.43;;;5.32;;
40591;SDS011;26301;42.832;23.918;2022-08-21T13:16:00;11.98;;;5.50;;
40591;SDS011;26301;42.832;23.918;2022-08-21T13:18:33;8.15;;;5.55;;
40591;SDS011;26301;42.832;23.918;2022-08-21T13:21:03;10.77;;;5.00;;
40591;SDS011;26301;42.832;23.918;2022-08-21T13:23:36;10.07;;;5.65;;
40591;SDS011;26301;42.832;23.918;2022-08-21T13:26:12;9.25;;;4.30;;
40591;SDS011;26301;42.832;23.918;2022-08-21T13:28:46;6.22;;;5.05;;
40591;SDS011;26301;42.832;23.918;2022-08-21T13:31:20;8.15;;;4.70;;
40591;SDS011;26301;42.832;23.918;2022-08-21T13:33:52;8.63;;;5.18;;
40591;SDS011;26301;42.832;23.918;2022-08-21T13:36:23;10.55;;;6.20;;
40591;SDS011;26301;42.832;23.918;2022-08-21T13:39:04;8.32;;;5.15;;
40591;SDS011;26301;42.832;23.918;2022-08-21T13:41:34;6.47;;;4.88;;
40591;SDS011;26301;42.832;23.918;2022-08-21T13:44:04;8.40;;;4.32;;
40591;SDS011;26301;42.832;23.918;2022-08-21T13:46:45;9.40;;;5.15;;
40591;SDS011;26301;42.832;23.918;2022-08-21T13:49:14;8.88;;;5.25;;
40591;SDS011;26301;42.832;23.918;2022-08-21T13:51:44;10.73;;;4.45;;
40591;SDS011;26301;42.832;23.918;2022-08-21T13:57:01;6.78;;;4.65;;
40591;SDS011;26301;42.832;23.918;2022-08-21T13:59:41;7.78;;;5.10;;
40591;SDS011;26301;42.832;23.918;2022-08-21T14:02:15;9.05;;;4.72;;
40591;SDS011;26301;42.832;23.918;2022-08-21T14:05:04;6.13;;;4.43;;
40591;SDS011;26301;42.832;23.918;2022-08-21T14:07:39;10.00;;;4.78;;
40591;SDS011;26301;42.832;23.918;2022-08-21T14:10:18;10.15;;;4.50;;
40591;SDS011;26301;42.832;23.918;2022-08-21T14:15:25;8.57;;;4.82;;
40591;SDS011;26301;42.832;23.918;2022-08-21T14:17:54;10.82;;;4.68;;
40591;SDS011;26301;42.832;23.918;2022-08-21T14:20:32;9.60;;;4.25;;
40591;SDS011;26301;42.832;23.918;2022-08-21T14:23:00;8.93;;;4.80;;
40591;SDS011;26301;42.832;23.918;2022-08-21T14:25:28;11.38;;;4.65;;
40591;SDS011;26301;42.832;23.918;2022-08-21T14:30:35;7.80;;;4.53;;
40591;SDS011;26301;42.832;23.918;2022-08-21T14:33:04;10.23;;;3.97;;
40591;SDS011;26301;42.832;23.918;2022-08-21T14:35:37;10.57;;;4.88;;
40591;SDS011;26301;42.832;23.918;2022-08-21T14:38:17;8.82;;;5.00;;
40591;SDS011;26301;42.832;23.918;2022-08-21T14:40:49;8.48;;;4.55;;
40591;SDS011;26301;42.832;23.918;2022-08-21T14:43:17;6.90;;;4.68;;
40591;SDS011;26301;42.832;23.918;2022-08-21T14:45:47;13.10;;;5.53;;
40591;SDS011;26301;42.832;23.918;2022-08-21T14:48:13;7.65;;;4.15;;
40591;SDS011;26301;42.832;23.918;2022-08-21T14:50:39;9.50;;;5.03;;
40591;SDS011;26301;42.832;23.918;2022-08-21T14:53:05;9.18;;;4.60;;
40591;SDS011;26301;42.832;23.918;2022-08-21T14:55:31;7.20;;;4.97;;
40591;SDS011;26301;42.832;23.918;2022-08-21T14:58:24;12.55;;;4.78;;
40591;SDS011;26301;42.832;23.918;2022-08-21T15:00:54;15.73;;;5.07;;
40591;SDS011;26301;42.832;23.918;2022-08-21T15:03:22;9.48;;;5.00;;
40591;SDS011;26301;42.832;23.918;2022-08-21T15:05:49;8.13;;;5.00;;
40591;SDS011;26301;42.832;23.918;2022-08-21T15:08:16;8.88;;;5.20;;
40591;SDS011;26301;42.832;23.918;2022-08-21T15:10:43;10.02;;;5.22;;
40591;SDS011;26301;42.832;23.918;2022-08-21T15:13:10;8.27;;;5.65;;
40591;SDS011;26301;42.832;23.918;2022-08-21T15:15:42;8.32;;;4.65;;
40591;SDS011;26301;42.832;23.918;2022-08-21T15:18:21;8.13;;;4.72;;
40591;SDS011;26301;42.832;23.918;2022-08-21T15:20:51;9.73;;;5.40;;
40591;SDS011;26301;42.832;23.918;2022-08-21T15:23:18;8.13;;;4.95;;
40591;SDS011;26301;42.832;23.918;2022-08-21T15:25:45;9.63;;;5.03;;
40591;SDS011;26301;42.832;23.918;2022-08-21T15:28:13;8.32;;;4.65;;
40591;SDS011;26301;42.832;23.918;2022-08-21T15:30:43;9.40;;;4.80;;
40591;SDS011;26301;42.832;23.918;2022-08-21T15:33:11;11.13;;;5.55;;
40591;SDS011;26301;42.832;23.918;2022-08-21T15:35:38;7.70;;;5.15;;
40591;SDS011;26301;42.832;23.918;2022-08-21T15:38:05;6.85;;;4.63;;
40591;SDS011;26301;42.832;23.918;2022-08-21T15:40:34;10.02;;;5.60;;
40591;SDS011;26301;42.832;23.918;2022-08-21T15:43:01;8.43;;;4.50;;
40591;SDS011;26301;42.832;23.918;2022-08-21T15:45:29;10.65;;;4.70;;
40591;SDS011;26301;42.832;23.918;2022-08-21T15:47:56;6.80;;;4.78;;
40591;SDS011;26301;42.832;23.918;2022-08-21T15:50:22;9.95;;;5.25;;
40591;SDS011;26301;42.832;23.918;2022-08-21T15:52:49;10.23;;;4.85;;
40591;SDS011;26301;42.832;23.918;2022-08-21T15:55:16;10.02;;;4.75;;
40591;SDS011;26301;42.832;23.918;2022-08-21T15:57:43;10.55;;;4.97;;
40591;SDS011;26301;42.832;23.918;2022-08-21T16:00:15;9.10;;;4.75;;
40591;SDS011;26301;42.832;23.918;2022-08-21T16:02:48;8.75;;;5.03;;
40591;SDS011;26301;42.832;23.918;2022-08-21T16:05:16;8.68;;;4.75;;
40591;SDS011;26301;42.832;23.918;2022-08-21T16:07:43;11.02;;;4.93;;
40591;SDS011;26301;42.832;23.918;2022-08-21T16:10:11;11.82;;;4.95;;
40591;SDS011;26301;42.832;23.918;2022-08-21T16:12:40;8.93;;;5.07;;
40591;SDS011;26301;42.832;23.918;2022-08-21T16:15:09;9.73;;;4.82;;
40591;SDS011;26301;42.832;23.918;2022-08-21T16:17:39;9.25;;;5.25;;
40591;SDS011;26301;42.832;23.918;2022-08-21T16:20:13;9.30;;;5.35;;
40591;SDS011;26301;42.832;23.918;2022-08-21T16:22:41;10.15;;;5.53;;
40591;SDS011;26301;42.832;23.918;2022-08-21T16:25:07;8.77;;;5.35;;
40591;SDS011;26301;42.832;23.918;2022-08-21T16:27:34;9.45;;;5.53;;
40591;SDS011;26301;42.832;23.918;2022-08-21T16:30:00;9.05;;;5.47;;
40591;SDS011;26301;42.832;23.918;2022-08-21T16:32:28;8.93;;;4.97;;
40591;SDS011;26301;42.832;23.918;2022-08-21T16:34:54;10.73;;;5.57;;
40591;SDS011;26301;42.832;23.918;2022-08-21T16:37:19;8.27;;;5.38;;
40591;SDS011;26301;42.832;23.918;2022-08-21T16:39:46;7.93;;;4.93;;
40591;SDS011;26301;42.832;23.918;2022-08-21T16:42:14;8.25;;;4.70;;
40591;SDS011;26301;42.832;23.918;2022-08-21T16:44:43;10.27;;;5.07;;
40591;SDS011;26301;42.832;23.918;2022-08-21T16:47:09;13.95;;;5.00;;